Time;durP1;ratioP1;P1;durP2;ratioP2;P2;SDS_P1;SDS_P2;PMS_P1;PMS_P2;Temp;Humidity;BMP_temperature;BMP_pressure;BME280_temperature;BME280_humidity;BME280_pressure;Samples;Min_cycle;Max_cycle;Signal;HPM_P1;HPM_P2
2021/08/19 00:00:58;;;;;;;2.33;1.65;;;17.10;99.90;;;;;;5013551;28;20030;-43
2021/08/19 00:03:23;;;;;;;1.95;1.50;;;17.10;99.90;;;;;;5013471;28;20068;-42
2021/08/19 00:05:49;;;;;;;2.03;1.80;;;17.10;99.90;;;;;;5013287;28;20462;-43
2021/08/19 00:08:14;;;;;;;2.05;1.60;;;17.10;99.90;;;;;;5013405;28;20092;-42
2021/08/19 00:10:40;;;;;;;2.45;2.08;;;17.10;99.90;;;;;;5012311;28;20022;-43
2021/08/19 00:13:06;;;;;;;4.53;1.98;;;17.10;99.90;;;;;;5013260;28;20525;-43
2021/08/19 00:15:31;;;;;;;2.15;1.70;;;17.10;99.90;;;;;;5013280;28;20018;-42
2021/08/19 00:17:57;;;;;;;2.80;2.10;;;17.10;99.90;;;;;;5013355;28;20026;-45
2021/08/19 00:20:22;;;;;;;2.88;2.03;;;17.10;99.90;;;;;;5013161;28;20362;-42
2021/08/19 00:22:48;;;;;;;3.67;2.08;;;17.10;99.90;;;;;;5013173;28;20077;-42
2021/08/19 00:25:13;;;;;;;3.33;2.50;;;17.10;99.90;;;;;;5012223;28;20038;-42
2021/08/19 00:27:39;;;;;;;2.60;2.10;;;17.10;99.90;;;;;;5012901;28;20030;-42
2021/08/19 00:30:05;;;;;;;3.05;2.17;;;17.20;99.90;;;;;;5013116;28;20045;-42
2021/08/19 00:32:31;;;;;;;2.70;2.47;;;17.20;99.90;;;;;;5012998;28;20022;-42
2021/08/19 00:34:57;;;;;;;2.75;2.42;;;17.20;99.90;;;;;;5011862;28;20588;-43
2021/08/19 00:37:23;;;;;;;3.88;3.10;;;17.20;99.90;;;;;;5012977;28;20053;-44
2021/08/19 00:39:49;;;;;;;3.15;2.85;;;17.20;99.90;;;;;;5012982;28;20342;-42
2021/08/19 00:42:15;;;;;;;3.63;3.13;;;17.20;99.90;;;;;;5011697;28;20042;-42
2021/08/19 00:44:45;;;;;;;2.97;2.63;;;17.20;99.90;;;;;;5012923;28;20053;-42
2021/08/19 00:47:11;;;;;;;5.30;3.40;;;17.30;99.90;;;;;;5011876;28;20034;-43
2021/08/19 00:49:40;;;;;;;3.47;3.17;;;17.20;99.90;;;;;;5013020;28;20468;-42
2021/08/19 00:52:06;;;;;;;3.38;3.08;;;17.30;99.90;;;;;;5012810;28;20076;-44
2021/08/19 00:54:32;;;;;;;3.70;3.03;;;17.40;99.90;;;;;;5012650;28;20030;-45
2021/08/19 00:56:59;;;;;;;2.83;2.60;;;17.30;99.90;;;;;;5011788;28;20599;-42
2021/08/19 00:59:30;;;;;;;5.15;2.70;;;17.40;99.90;;;;;;5012726;28;20101;-42
2021/08/19 01:02:00;;;;;;;3.40;2.83;;;17.40;99.90;;;;;;5012840;28;20033;-45
2021/08/19 01:04:34;;;;;;;4.35;3.47;;;17.40;99.90;;;;;;5012565;28;20422;-42
2021/08/19 01:07:01;;;;;;;4.25;3.72;;;17.40;99.90;;;;;;5012582;28;20061;-42
2021/08/19 01:09:26;;;;;;;3.90;3.50;;;17.40;99.90;;;;;;5012495;28;20072;-42
2021/08/19 01:11:52;;;;;;;5.53;4.00;;;17.40;99.90;;;;;;5011591;28;20026;-42
2021/08/19 01:14:18;;;;;;;4.95;4.45;;;17.40;99.90;;;;;;5012689;28;20053;-42
2021/08/19 01:16:45;;;;;;;4.95;4.05;;;17.40;99.90;;;;;;5012632;28;21128;-42
2021/08/19 01:19:19;;;;;;;6.25;4.50;;;17.50;99.90;;;;;;5012681;28;20061;-42
2021/08/19 01:21:45;;;;;;;6.47;3.90;;;17.50;99.90;;;;;;5011162;28;20112;-44
2021/08/19 01:24:11;;;;;;;6.93;4.80;;;17.50;99.90;;;;;;5012513;28;20523;-42
2021/08/19 01:26:38;;;;;;;6.63;5.40;;;17.50;99.90;;;;;;5011527;28;20076;-42
2021/08/19 01:29:06;;;;;;;6.30;4.40;;;17.50;99.90;;;;;;5012620;28;20441;-42
2021/08/19 01:31:34;;;;;;;5.53;4.72;;;17.50;99.90;;;;;;5012501;28;20386;-45
2021/08/19 01:33:59;;;;;;;6.10;4.60;;;17.40;99.90;;;;;;5012541;28;20014;-43
2021/08/19 01:36:25;;;;;;;6.82;5.90;;;17.40;99.90;;;;;;5012314;28;20038;-43
2021/08/19 01:38:51;;;;;;;8.02;5.97;;;17.50;99.90;;;;;;5012410;28;20029;-42
2021/08/19 01:41:18;;;;;;;5.47;4.97;;;17.40;99.90;;;;;;5011519;28;20377;-42
2021/08/19 01:43:46;;;;;;;6.47;5.75;;;17.40;99.90;;;;;;5011072;28;20026;-42
2021/08/19 01:46:13;;;;;;;6.68;5.38;;;17.40;99.90;;;;;;5012380;28;20494;-42
2021/08/19 01:48:43;;;;;;;6.07;5.43;;;17.40;99.90;;;;;;5012345;28;20025;-42
2021/08/19 01:51:13;;;;;;;6.85;5.80;;;17.40;99.90;;;;;;5012168;28;20017;-42
2021/08/19 01:53:41;;;;;;;5.93;5.35;;;17.40;99.90;;;;;;5012162;28;20026;-42
2021/08/19 01:56:06;;;;;;;6.07;5.45;;;17.40;99.90;;;;;;5011429;28;20473;-42
2021/08/19 01:58:32;;;;;;;7.93;6.25;;;17.40;99.90;;;;;;5014693;28;20045;-42
2021/08/19 02:00:57;;;;;;;5.20;4.38;;;17.40;99.90;;;;;;5015782;28;20041;-43
2021/08/19 02:03:23;;;;;;;6.22;5.63;;;17.40;99.90;;;;;;5015626;28;20030;-43
2021/08/19 02:05:48;;;;;;;5.40;4.65;;;17.30;99.90;;;;;;5015276;28;20054;-43
2021/08/19 02:08:15;;;;;;;7.10;5.38;;;17.30;99.90;;;;;;5015630;28;20441;-42
2021/08/19 02:10:41;;;;;;;5.07;3.97;;;17.30;99.90;;;;;;5014541;28;20022;-42
2021/08/19 02:13:07;;;;;;;7.93;6.00;;;17.40;99.90;;;;;;5015565;28;20389;-42
2021/08/19 02:15:32;;;;;;;6.25;4.55;;;17.30;99.90;;;;;;5015393;28;20424;-42
2021/08/19 02:17:58;;;;;;;7.70;5.93;;;17.30;99.90;;;;;;5015330;28;20026;-45
2021/08/19 02:20:24;;;;;;;6.45;5.70;;;17.30;99.90;;;;;;5015350;28;20053;-42
2021/08/19 02:22:49;;;;;;;5.60;5.10;;;17.30;99.90;;;;;;5015296;28;20029;-42
2021/08/19 02:25:16;;;;;;;6.70;5.63;;;17.30;99.90;;;;;;5014402;28;20072;-46
2021/08/19 02:27:42;;;;;;;5.82;5.15;;;17.30;99.90;;;;;;5015164;28;20038;-42
2021/08/19 02:30:09;;;;;;;5.05;4.38;;;17.40;99.90;;;;;;5015195;28;20531;-42
2021/08/19 02:32:35;;;;;;;5.38;4.88;;;17.30;99.90;;;;;;5015039;28;20447;-42
2021/08/19 02:35:01;;;;;;;5.82;4.45;;;17.30;99.90;;;;;;5015002;28;20101;-44
2021/08/19 02:37:27;;;;;;;6.32;5.38;;;17.30;99.90;;;;;;5015097;28;20060;-42
2021/08/19 02:39:52;;;;;;;5.15;4.57;;;17.30;99.90;;;;;;5014886;28;20033;-44
2021/08/19 02:42:18;;;;;;;5.57;4.97;;;17.30;99.90;;;;;;5013972;28;20056;-42
2021/08/19 02:44:43;;;;;;;6.72;5.60;;;17.30;99.90;;;;;;5014826;28;20041;-42
2021/08/19 02:47:08;;;;;;;6.00;5.13;;;17.30;99.90;;;;;;5014854;28;20572;-42
2021/08/19 02:49:34;;;;;;;5.45;4.65;;;17.30;99.90;;;;;;5014735;28;20030;-44
2021/08/19 02:52:00;;;;;;;4.60;3.88;;;17.30;99.90;;;;;;5013443;28;20469;-43
2021/08/19 02:54:25;;;;;;;4.95;4.53;;;17.30;99.90;;;;;;5014818;28;20026;-42
2021/08/19 02:56:51;;;;;;;7.57;5.47;;;17.30;99.90;;;;;;5013772;28;20042;-42
2021/08/19 02:59:16;;;;;;;4.85;4.25;;;17.30;99.90;;;;;;5014719;28;20034;-42
2021/08/19 03:01:42;;;;;;;4.80;4.07;;;17.30;99.90;;;;;;5014578;28;20025;-42
2021/08/19 03:04:07;;;;;;;4.75;4.30;;;17.20;99.90;;;;;;5014466;28;20046;-45
2021/08/19 03:06:33;;;;;;;5.22;4.72;;;17.20;99.90;;;;;;5014466;28;20037;-42
2021/08/19 03:08:58;;;;;;;5.13;4.63;;;17.20;99.90;;;;;;5013579;28;20372;-42
2021/08/19 03:11:24;;;;;;;5.70;4.50;;;17.20;99.90;;;;;;5013489;28;20030;-42
2021/08/19 03:13:52;;;;;;;4.85;4.35;;;17.20;99.90;;;;;;5014295;28;20037;-42
2021/08/19 03:16:19;;;;;;;5.85;4.47;;;17.20;99.90;;;;;;5014336;28;20026;-42
2021/08/19 03:18:44;;;;;;;5.97;4.60;;;17.20;99.90;;;;;;5014116;28;20037;-42
2021/08/19 03:21:10;;;;;;;5.57;4.72;;;17.10;99.90;;;;;;5014237;28;20397;-45
2021/08/19 03:23:36;;;;;;;4.70;4.30;;;17.10;99.90;;;;;;5014209;28;20481;-42
2021/08/19 03:26:04;;;;;;;5.22;4.13;;;17.00;99.90;;;;;;5013223;28;20088;-42
2021/08/19 03:28:30;;;;;;;9.25;4.78;;;16.90;99.90;;;;;;5014046;28;20026;-45
2021/08/19 03:30:57;;;;;;;4.38;3.83;;;16.80;99.90;;;;;;5013987;28;20026;-42
2021/08/19 03:33:22;;;;;;;4.63;4.22;;;16.80;99.90;;;;;;5013937;28;20026;-42
2021/08/19 03:35:48;;;;;;;5.53;5.03;;;16.70;99.90;;;;;;5012753;28;20025;-42
2021/08/19 03:38:13;;;;;;;5.28;4.78;;;16.70;99.90;;;;;;5013890;28;20022;-42
2021/08/19 03:40:39;;;;;;;5.03;4.18;;;16.80;99.90;;;;;;5012932;28;20025;-42
2021/08/19 03:43:04;;;;;;;4.72;4.20;;;16.80;99.90;;;;;;5013793;28;20109;-42
2021/08/19 03:45:30;;;;;;;4.95;4.18;;;16.80;99.90;;;;;;5013820;28;20038;-42
2021/08/19 03:47:55;;;;;;;6.15;4.65;;;16.80;99.90;;;;;;5013501;28;20030;-42
2021/08/19 03:50:22;;;;;;;5.38;4.03;;;16.80;99.90;;;;;;5013798;28;20030;-42
2021/08/19 03:52:47;;;;;;;4.93;3.78;;;16.80;99.90;;;;;;5013512;28;20018;-42
2021/08/19 03:55:13;;;;;;;3.78;3.42;;;16.80;99.90;;;;;;5011445;28;20032;-42
2021/08/19 03:57:39;;;;;;;5.00;3.80;;;16.80;99.90;;;;;;5013534;28;20034;-43
2021/08/19 04:00:06;;;;;;;4.60;4.20;;;16.80;99.90;;;;;;5013667;28;20552;-42
2021/08/19 04:02:31;;;;;;;3.88;3.47;;;16.80;99.90;;;;;;5013456;28;20101;-42
2021/08/19 04:04:57;;;;;;;4.07;3.67;;;16.80;99.90;;;;;;5013242;28;20136;-45
2021/08/19 04:07:22;;;;;;;4.30;3.90;;;16.90;99.90;;;;;;5012747;28;20033;-43
2021/08/19 04:09:49;;;;;;;4.65;3.50;;;16.90;99.90;;;;;;5032663;28;20053;-43
2021/08/19 04:12:15;;;;;;;5.22;4.13;;;16.90;99.90;;;;;;5028507;28;20518;-42
2021/08/19 04:14:40;;;;;;;4.05;3.65;;;16.90;99.90;;;;;;5032848;28;20026;-42
2021/08/19 04:17:06;;;;;;;5.88;3.55;;;16.90;99.90;;;;;;5032616;28;20037;-42
2021/08/19 04:19:31;;;;;;;5.18;4.03;;;16.90;99.90;;;;;;5032810;28;20079;-42
2021/08/19 04:21:57;;;;;;;5.65;4.45;;;16.90;99.90;;;;;;5032572;28;20048;-42
2021/08/19 04:24:23;;;;;;;5.78;4.45;;;17.00;99.90;;;;;;5032607;28;20067;-42
2021/08/19 04:26:48;;;;;;;4.70;4.20;;;17.00;99.90;;;;;;5031560;28;20021;-43
2021/08/19 04:29:14;;;;;;;6.80;4.63;;;16.90;99.90;;;;;;5032688;28;20034;-43
2021/08/19 04:31:39;;;;;;;7.70;4.80;;;17.00;99.90;;;;;;5032451;28;20043;-42
2021/08/19 04:34:05;;;;;;;5.80;4.70;;;17.00;99.90;;;;;;5032520;28;20381;-47
2021/08/19 04:36:31;;;;;;;5.40;3.65;;;17.00;99.90;;;;;;5032818;28;20044;-42
2021/08/19 04:38:57;;;;;;;5.20;4.28;;;17.00;99.90;;;;;;5032604;28;20084;-42
2021/08/19 04:41:22;;;;;;;5.65;5.05;;;17.00;99.90;;;;;;5031567;28;20033;-42
2021/08/19 04:43:48;;;;;;;5.60;4.15;;;17.10;99.90;;;;;;5032571;28;20098;-43
2021/08/19 04:46:14;;;;;;;4.28;3.80;;;17.10;99.90;;;;;;5032426;28;20037;-43
2021/08/19 04:48:39;;;;;;;5.03;4.13;;;17.20;99.90;;;;;;5032523;28;20025;-42
2021/08/19 04:51:05;;;;;;;5.93;3.60;;;17.30;99.90;;;;;;5032496;28;20143;-44
2021/08/19 04:53:30;;;;;;;4.13;3.65;;;17.30;99.90;;;;;;5029655;28;20100;-44
2021/08/19 04:55:56;;;;;;;3.55;3.25;;;17.40;99.90;;;;;;5031335;28;20430;-44
2021/08/19 04:58:21;;;;;;;4.10;3.15;;;17.60;99.90;;;;;;5032372;28;20057;-42
2021/08/19 05:00:47;;;;;;;7.43;3.10;;;17.70;99.90;;;;;;5032055;28;20044;-42
2021/08/19 05:03:13;;;;;;;4.32;2.33;;;17.80;99.90;;;;;;5032394;28;20076;-42
2021/08/19 05:05:38;;;;;;;3.55;2.97;;;18.00;99.90;;;;;;5032293;28;20095;-42
2021/08/19 05:08:04;;;;;;;4.30;2.80;;;18.20;99.90;;;;;;5027981;28;20464;-44
2021/08/19 05:10:29;;;;;;;4.97;3.03;;;18.40;99.90;;;;;;5030462;28;20041;-43
2021/08/19 05:12:55;;;;;;;4.30;2.90;;;18.60;99.90;;;;;;5030736;28;20030;-43
2021/08/19 05:15:20;;;;;;;4.50;3.00;;;18.70;99.90;;;;;;5030803;28;20371;-42
2021/08/19 05:17:46;;;;;;;5.28;2.80;;;18.70;99.90;;;;;;5030862;28;20026;-45
2021/08/19 05:20:13;;;;;;;2.72;2.40;;;18.90;99.90;;;;;;5030872;28;20152;-43
2021/08/19 05:22:38;;;;;;;2.70;2.38;;;19.60;99.90;;;;;;5030969;28;20025;-42
2021/08/19 05:25:06;;;;;;;6.25;2.42;;;20.00;99.90;;;;;;5030151;28;20029;-43
2021/08/19 05:27:31;;;;;;;2.78;2.08;;;20.10;99.90;;;;;;5029948;28;20029;-43
2021/08/19 05:29:57;;;;;;;2.17;1.98;;;20.30;99.90;;;;;;5029996;28;20044;-43
2021/08/19 05:32:22;;;;;;;2.38;2.17;;;20.70;99.90;;;;;;5031842;28;20068;-45
2021/08/19 05:34:48;;;;;;;2.22;2.03;;;20.80;99.90;;;;;;5034667;28;20104;-43
2021/08/19 05:37:13;;;;;;;6.32;2.53;;;20.90;99.50;;;;;;5033170;28;20036;-43
2021/08/19 05:39:39;;;;;;;3.33;2.47;;;21.20;98.20;;;;;;5034564;28;20121;-43
2021/08/19 05:42:04;;;;;;;2.85;2.15;;;22.10;96.00;;;;;;5033579;28;20021;-45
2021/08/19 05:44:30;;;;;;;3.67;2.13;;;23.60;93.10;;;;;;5034469;28;20112;-45
2021/08/19 05:46:55;;;;;;;3.30;2.08;;;25.00;87.00;;;;;;5034335;28;20025;-43
2021/08/19 05:49:21;;;;;;;4.10;2.53;;;26.00;79.20;;;;;;5034411;28;20463;-43
2021/08/19 05:51:46;;;;;;;3.30;1.92;;;26.10;77.50;;;;;;5034410;28;20033;-45
2021/08/19 05:54:12;;;;;;;2.47;2.10;;;25.50;76.20;;;;;;5034251;28;20034;-43
2021/08/19 05:56:37;;;;;;;3.13;2.38;;;24.70;80.20;;;;;;5033479;28;20065;-45
2021/08/19 05:59:03;;;;;;;5.90;2.70;;;23.90;83.90;;;;;;5034264;28;20113;-43
2021/08/19 06:01:28;;;;;;;2.20;2.00;;;23.30;86.90;;;;;;5034137;28;20021;-44
2021/08/19 06:03:54;;;;;;;2.97;2.47;;;23.00;90.00;;;;;;5033184;28;20408;-43
2021/08/19 06:06:19;;;;;;;3.05;2.50;;;22.60;86.40;;;;;;4984840;28;20481;-43
2021/08/19 06:08:45;;;;;;;3.83;2.78;;;22.30;91.20;;;;;;5028695;28;20061;-42
2021/08/19 06:11:10;;;;;;;5.18;2.83;;;22.10;92.10;;;;;;5033131;28;20526;-45
2021/08/19 06:13:37;;;;;;;4.40;2.35;;;21.80;92.60;;;;;;5034043;28;20025;-43
2021/08/19 06:16:02;;;;;;;2.97;2.78;;;21.60;93.60;;;;;;5033742;28;20105;-44
2021/08/19 06:18:28;;;;;;;7.35;3.05;;;21.50;93.70;;;;;;5034133;28;20184;-46
2021/08/19 06:20:53;;;;;;;4.38;3.22;;;21.30;93.80;;;;;;5034408;28;20477;-42
2021/08/19 06:23:19;;;;;;;4.93;2.70;;;21.00;93.80;;;;;;5033939;28;20083;-43
2021/08/19 06:25:45;;;;;;;5.25;2.95;;;20.80;94.50;;;;;;5034169;28;20029;-42
2021/08/19 06:28:10;;;;;;;4.15;2.90;;;20.70;95.00;;;;;;5034743;28;20108;-42
2021/08/19 06:30:37;;;;;;;3.13;2.83;;;20.50;95.30;;;;;;5034745;28;20036;-42
2021/08/19 06:33:03;;;;;;;3.45;2.95;;;20.40;95.90;;;;;;5034906;28;20136;-42
2021/08/19 06:35:29;;;;;;;5.15;3.35;;;20.20;96.50;;;;;;5034997;28;20377;-44
2021/08/19 06:37:55;;;;;;;4.30;3.10;;;20.00;97.30;;;;;;5034846;28;20075;-42
2021/08/19 06:40:21;;;;;;;4.60;3.05;;;19.80;98.10;;;;;;5033914;28;20087;-42
2021/08/19 06:42:47;;;;;;;3.85;3.45;;;19.60;98.90;;;;;;5034797;28;20033;-42
2021/08/19 06:45:13;;;;;;;3.22;2.50;;;19.50;99.40;;;;;;5033333;28;20041;-42
2021/08/19 06:47:39;;;;;;;5.95;3.10;;;19.50;99.70;;;;;;5034648;28;20117;-42
2021/08/19 06:50:05;;;;;;;3.40;3.10;;;19.50;99.90;;;;;;5034603;28;20022;-45
2021/08/19 06:52:31;;;;;;;5.72;2.67;;;19.50;99.90;;;;;;5034437;28;20017;-42
2021/08/19 06:54:58;;;;;;;3.75;3.20;;;19.50;99.90;;;;;;5033567;28;20017;-45
2021/08/19 06:57:24;;;;;;;3.15;2.78;;;19.60;99.90;;;;;;5034504;28;20028;-42
2021/08/19 06:59:49;;;;;;;4.43;3.15;;;19.60;99.30;;;;;;5034326;28;20034;-42
2021/08/19 07:02:15;;;;;;;5.88;3.58;;;19.70;98.60;;;;;;5034323;28;20025;-42
2021/08/19 07:04:41;;;;;;;3.13;2.80;;;19.70;98.40;;;;;;5034284;28;20408;-42
2021/08/19 07:07:06;;;;;;;4.90;3.20;;;19.80;98.00;;;;;;5034194;28;20025;-44
2021/08/19 07:09:32;;;;;;;6.57;3.53;;;20.10;97.20;;;;;;5034252;28;20021;-42
2021/08/19 07:11:57;;;;;;;3.05;2.75;;;20.30;96.70;;;;;;5033214;28;20025;-42
2021/08/19 07:14:23;;;;;;;4.07;3.30;;;20.40;96.30;;;;;;5033958;28;20025;-42
2021/08/19 07:16:49;;;;;;;5.32;2.83;;;20.40;95.30;;;;;;5034086;28;20064;-42
2021/08/19 07:19:14;;;;;;;3.53;2.38;;;20.60;95.40;;;;;;5033996;28;20481;-43
2021/08/19 07:21:40;;;;;;;4.47;3.28;;;20.70;95.00;;;;;;5034050;28;20026;-42
2021/08/19 07:24:05;;;;;;;5.53;3.90;;;20.70;94.40;;;;;;5033922;28;20032;-43
2021/08/19 07:26:31;;;;;;;4.40;2.67;;;20.60;94.20;;;;;;5033018;28;20033;-42
2021/08/19 07:28:57;;;;;;;4.78;3.08;;;20.50;94.10;;;;;;5033790;28;20104;-42
2021/08/19 07:31:23;;;;;;;7.85;3.00;;;20.50;94.20;;;;;;5034009;28;20033;-45
2021/08/19 07:33:49;;;;;;;4.47;3.45;;;20.40;94.80;;;;;;5033875;28;20484;-42
2021/08/19 07:36:14;;;;;;;3.60;3.20;;;20.30;95.20;;;;;;5033718;28;20041;-45
2021/08/19 07:38:40;;;;;;;4.90;3.53;;;20.10;95.60;;;;;;5033810;28;20025;-42
2021/08/19 07:41:06;;;;;;;4.70;3.13;;;20.10;95.70;;;;;;5032576;28;20021;-42
2021/08/19 07:43:32;;;;;;;4.15;3.05;;;20.10;95.90;;;;;;5033553;28;20033;-43
2021/08/19 07:45:58;;;;;;;4.15;3.40;;;20.00;96.10;;;;;;5033587;28;20067;-44
2021/08/19 07:48:24;;;;;;;3.38;3.00;;;19.90;96.40;;;;;;5033487;28;20091;-42
2021/08/19 07:50:49;;;;;;;5.47;2.75;;;20.00;96.60;;;;;;5033490;28;20879;-43
2021/08/19 07:53:15;;;;;;;3.20;2.78;;;20.00;96.80;;;;;;5033446;28;20125;-42
2021/08/19 07:55:40;;;;;;;3.65;2.88;;;20.00;97.00;;;;;;5032123;28;20120;-42
2021/08/19 07:58:06;;;;;;;5.28;3.15;;;20.00;97.00;;;;;;5033218;28;20025;-43
2021/08/19 08:00:34;;;;;;;4.97;3.50;;;20.00;97.10;;;;;;5033304;28;20075;-43
2021/08/19 08:03:00;;;;;;;4.47;3.55;;;20.00;97.10;;;;;;5031927;28;20421;-45
2021/08/19 08:05:28;;;;;;;4.30;3.58;;;20.00;97.20;;;;;;5033011;28;20082;-42
2021/08/19 08:08:01;;;;;;;4.10;3.33;;;20.00;97.30;;;;;;5033215;28;20026;-42
2021/08/19 08:10:27;;;;;;;3.70;2.65;;;20.00;97.50;;;;;;5032020;28;20435;-42
2021/08/19 08:12:53;;;;;;;4.68;3.38;;;20.00;97.60;;;;;;5033015;28;20026;-43
2021/08/19 08:15:18;;;;;;;3.97;2.92;;;19.90;97.80;;;;;;5033011;28;20108;-42
2021/08/19 08:17:44;;;;;;;3.42;2.83;;;19.80;98.00;;;;;;5033044;28;20034;-45
2021/08/19 08:20:11;;;;;;;4.47;3.05;;;19.80;98.20;;;;;;5032963;28;20104;-42
2021/08/19 08:22:40;;;;;;;5.22;3.13;;;19.90;98.20;;;;;;5032991;28;20069;-45
2021/08/19 08:25:07;;;;;;;4.00;3.03;;;20.00;98.00;;;;;;5031949;28;20455;-42
2021/08/19 08:27:32;;;;;;;4.47;3.25;;;20.10;97.70;;;;;;5032634;28;20079;-46
2021/08/19 08:29:58;;;;;;;5.80;3.75;;;20.10;97.50;;;;;;5032831;28;20034;-44
2021/08/19 08:32:23;;;;;;;3.60;2.60;;;20.10;97.60;;;;;;5032826;28;20076;-43
2021/08/19 08:34:49;;;;;;;6.00;3.00;;;20.30;97.40;;;;;;5032775;28;20026;-42
2021/08/19 08:37:14;;;;;;;4.47;3.20;;;20.50;97.10;;;;;;5032649;28;20075;-42
2021/08/19 08:39:40;;;;;;;5.85;3.40;;;20.60;96.80;;;;;;5032817;28;20033;-42
2021/08/19 08:42:07;;;;;;;4.75;3.65;;;20.50;96.70;;;;;;5031677;28;20028;-44
2021/08/19 08:44:34;;;;;;;5.35;2.95;;;20.50;96.90;;;;;;5032710;28;20028;-43
2021/08/19 08:47:01;;;;;;;4.45;3.00;;;20.50;96.70;;;;;;5032660;28;20033;-42
2021/08/19 08:49:27;;;;;;;4.18;3.17;;;20.60;96.40;;;;;;5032487;28;20017;-44
2021/08/19 08:51:57;;;;;;;3.75;2.47;;;20.60;96.10;;;;;;5032801;28;20392;-42
2021/08/19 08:54:29;;;;;;;3.92;2.60;;;20.50;96.20;;;;;;5032455;28;20101;-46
2021/08/19 08:56:56;;;;;;;4.45;2.95;;;20.50;96.50;;;;;;5031663;28;20037;-42
2021/08/19 08:59:21;;;;;;;7.35;3.50;;;20.30;96.60;;;;;;5032469;28;20053;-45
2021/08/19 09:01:47;;;;;;;4.65;3.08;;;20.20;96.20;;;;;;5032600;28;20065;-42
2021/08/19 09:04:12;;;;;;;3.38;2.53;;;20.20;96.10;;;;;;5032294;28;20054;-45
2021/08/19 09:06:45;;;;;;;4.38;2.95;;;20.30;96.00;;;;;;5032483;28;20067;-44
2021/08/19 09:09:22;;;;;;;2.95;2.63;;;20.30;95.70;;;;;;5036156;28;20030;-44
2021/08/19 09:11:59;;;;;;;6.10;2.75;;;20.20;96.00;;;;;;5035584;28;20458;-44
2021/08/19 09:14:31;;;;;;;3.53;2.50;;;20.00;96.20;;;;;;5036439;28;20037;-42
2021/08/19 09:16:57;;;;;;;6.13;2.67;;;19.80;96.80;;;;;;5036428;28;20029;-42
2021/08/19 09:19:28;;;;;;;5.15;2.63;;;19.80;97.00;;;;;;5036095;28;20136;-42
2021/08/19 09:22:04;;;;;;;3.33;2.45;;;20.10;97.20;;;;;;5036365;28;20128;-42
2021/08/19 09:24:34;;;;;;;4.40;2.72;;;20.30;96.00;;;;;;5036426;28;20033;-42
2021/08/19 09:27:17;;;;;;;3.10;2.45;;;20.50;95.40;;;;;;5035278;28;20465;-44
2021/08/19 09:29:45;;;;;;;4.70;3.13;;;20.70;94.50;;;;;;5036204;28;20076;-43
2021/08/19 09:32:19;;;;;;;4.15;2.95;;;20.80;94.10;;;;;;5036019;28;20028;-42
2021/08/19 09:34:46;;;;;;;3.58;2.55;;;20.80;93.70;;;;;;5036365;28;20407;-43
2021/08/19 09:37:15;;;;;;;4.53;3.00;;;20.80;93.90;;;;;;5035914;28;20044;-42
2021/08/19 09:39:45;;;;;;;4.65;2.63;;;21.00;93.50;;;;;;5035924;28;20080;-42
2021/08/19 09:42:12;;;;;;;4.88;3.08;;;21.30;92.80;;;;;;5035223;28;20033;-42
2021/08/19 09:44:46;;;;;;;4.78;2.83;;;21.40;92.00;;;;;;5035563;28;20076;-42
2021/08/19 09:47:32;;;;;;;4.10;3.20;;;21.60;91.10;;;;;;5035738;28;20385;-43
2021/08/19 09:50:20;;;;;;;3.30;3.00;;;21.70;90.40;;;;;;5036087;28;20018;-42
2021/08/19 09:52:47;;;;;;;5.03;2.47;;;21.80;90.00;;;;;;5035708;28;20026;-42
2021/08/19 09:55:30;;;;;;;4.38;3.10;;;22.00;89.60;;;;;;5034718;28;20025;-45
2021/08/19 09:58:01;;;;;;;2.92;2.35;;;21.90;84.80;;;;;;5034346;28;20029;-43
2021/08/19 10:00:41;;;;;;;4.40;2.78;;;21.80;86.10;;;;;;5035566;28;20033;-42
2021/08/19 10:03:09;;;;;;;3.92;2.50;;;21.70;85.60;;;;;;5035607;28;20025;-43
2021/08/19 10:05:35;;;;;;;4.00;2.80;;;21.60;87.20;;;;;;5035199;28;20050;-44
2021/08/19 10:08:01;;;;;;;5.03;2.63;;;21.50;87.20;;;;;;5035345;28;20026;-42
2021/08/19 10:10:29;;;;;;;4.53;2.63;;;21.30;87.20;;;;;;5034402;28;20022;-44
2021/08/19 10:13:00;;;;;;;6.38;2.78;;;21.10;87.80;;;;;;5035413;28;20018;-42
2021/08/19 10:15:26;;;;;;;3.20;2.28;;;21.00;88.40;;;;;;5035217;28;20048;-44
2021/08/19 10:17:55;;;;;;;4.15;2.53;;;21.00;89.20;;;;;;5034871;28;20041;-42
2021/08/19 10:20:25;;;;;;;5.13;2.65;;;21.00;89.10;;;;;;5035129;28;20037;-43
2021/08/19 10:22:54;;;;;;;3.78;2.38;;;21.30;87.60;;;;;;5035160;28;20057;-42
2021/08/19 10:25:23;;;;;;;2.80;2.33;;;21.70;86.10;;;;;;5034221;28;20026;-42
2021/08/19 10:28:12;;;;;;;3.53;2.40;;;22.00;84.30;;;;;;5035008;28;20029;-42
2021/08/19 10:30:49;;;;;;;2.95;2.55;;;22.20;78.00;;;;;;5034902;28;20029;-43
2021/08/19 10:33:47;;;;;;;5.97;2.72;;;22.20;79.50;;;;;;5035007;28;20022;-42
2021/08/19 10:36:12;;;;;;;3.33;2.20;;;22.30;78.20;;;;;;5022800;28;20069;-42
2021/08/19 10:38:39;;;;;;;3.00;2.40;;;22.40;80.10;;;;;;5033575;28;20456;-43
2021/08/19 10:41:30;;;;;;;4.97;3.15;;;22.70;79.60;;;;;;5033862;28;20140;-42
2021/08/19 10:44:09;;;;;;;4.28;2.72;;;22.80;77.50;;;;;;5034702;28;20143;-42
2021/08/19 10:46:50;;;;;;;5.63;2.97;;;23.00;76.10;;;;;;5034627;28;20064;-43
2021/08/19 10:49:30;;;;;;;3.65;2.53;;;23.20;74.60;;;;;;5034606;28;20037;-45
2021/08/19 10:52:08;;;;;;;2.40;2.20;;;23.20;74.10;;;;;;5034609;28;20022;-43
2021/08/19 10:54:39;;;;;;;5.13;3.00;;;23.20;75.90;;;;;;5034584;28;20029;-42
2021/08/19 10:57:24;;;;;;;5.28;3.33;;;23.10;73.50;;;;;;5033589;28;20065;-43
2021/08/19 10:59:57;;;;;;;3.78;2.90;;;22.80;76.00;;;;;;5034582;28;20075;-42
2021/08/19 11:02:43;;;;;;;4.45;3.00;;;22.50;77.90;;;;;;5034327;28;20024;-42
2021/08/19 11:05:13;;;;;;;3.27;2.87;;;22.10;79.60;;;;;;5034291;28;20046;-45
2021/08/19 11:07:46;;;;;;;3.85;2.90;;;21.90;82.60;;;;;;5034182;28;20033;-43
2021/08/19 11:10:18;;;;;;;4.45;2.80;;;21.50;85.00;;;;;;5033230;28;20027;-42
2021/08/19 11:12:44;;;;;;;3.92;2.33;;;21.40;85.90;;;;;;5034195;28;20025;-42
2021/08/19 11:15:10;;;;;;;4.30;2.90;;;21.30;86.80;;;;;;5034182;28;20021;-43
2021/08/19 11:17:36;;;;;;;4.85;2.67;;;21.30;87.10;;;;;;5034086;28;20430;-42
2021/08/19 11:20:23;;;;;;;3.17;2.63;;;21.30;87.00;;;;;;5034165;28;20072;-43
2021/08/19 11:23:12;;;;;;;4.05;2.90;;;21.40;85.50;;;;;;5033923;28;20064;-42
2021/08/19 11:25:39;;;;;;;2.67;2.40;;;21.50;85.20;;;;;;5032922;28;20033;-42
2021/08/19 11:28:15;;;;;;;6.20;2.80;;;21.80;84.00;;;;;;5033847;28;20549;-43
2021/08/19 11:30:50;;;;;;;3.50;2.70;;;22.20;82.40;;;;;;5033057;28;20033;-42
2021/08/19 11:33:18;;;;;;;3.70;3.20;;;22.70;79.50;;;;;;5033740;28;20033;-45
2021/08/19 11:35:48;;;;;;;5.38;3.08;;;23.10;77.50;;;;;;5033942;28;20034;-42
2021/08/19 11:38:19;;;;;;;4.88;2.85;;;23.50;74.60;;;;;;5033719;28;20017;-43
2021/08/19 11:40:47;;;;;;;6.30;3.05;;;23.60;71.70;;;;;;5032694;28;20024;-44
2021/08/19 11:43:32;;;;;;;4.88;3.05;;;23.70;71.60;;;;;;5033770;28;20029;-43
2021/08/19 11:46:27;;;;;;;4.07;2.80;;;23.90;68.40;;;;;;5033679;28;20116;-43
2021/08/19 11:49:08;;;;;;;5.28;2.88;;;24.00;68.90;;;;;;5033670;28;20182;-42
2021/08/19 11:51:36;;;;;;;5.03;3.38;;;24.30;69.60;;;;;;5033450;28;20025;-44
2021/08/19 11:54:04;;;;;;;3.78;2.85;;;24.60;68.80;;;;;;5033384;28;20025;-44
2021/08/19 11:56:34;;;;;;;3.63;3.28;;;24.70;67.00;;;;;;5032477;28;20087;-43
2021/08/19 11:59:08;;;;;;;4.47;3.35;;;24.70;65.60;;;;;;5033646;28;20361;-45
2021/08/19 12:01:39;;;;;;;3.42;2.83;;;24.70;66.80;;;;;;5033255;28;20033;-45
2021/08/19 12:04:06;;;;;;;3.90;2.90;;;24.90;65.00;;;;;;5032968;28;20044;-43
2021/08/19 12:06:32;;;;;;;4.30;3.00;;;24.90;65.00;;;;;;5032859;28;20026;-43
2021/08/19 12:09:07;;;;;;;4.03;2.70;;;25.00;63.40;;;;;;5033311;28;20380;-45
2021/08/19 12:11:38;;;;;;;4.13;3.08;;;25.00;61.30;;;;;;5032104;28;20140;-44
2021/08/19 12:14:06;;;;;;;6.82;2.88;;;24.90;61.20;;;;;;5033251;28;20029;-43
2021/08/19 12:16:33;;;;;;;3.70;2.35;;;24.80;61.10;;;;;;5033090;28;20037;-45
2021/08/19 12:19:14;;;;;;;6.15;2.88;;;24.80;61.70;;;;;;5032911;28;20025;-44
2021/08/19 12:21:57;;;;;;;3.50;2.80;;;24.70;58.10;;;;;;5032951;28;20025;-47
2021/08/19 12:24:30;;;;;;;3.22;2.47;;;24.60;59.20;;;;;;5032993;28;20032;-45
2021/08/19 12:27:21;;;;;;;3.08;2.38;;;24.60;61.00;;;;;;5031927;28;20036;-43
2021/08/19 12:29:50;;;;;;;3.83;2.50;;;24.80;60.70;;;;;;5032782;28;20032;-45
2021/08/19 12:32:22;;;;;;;2.78;2.35;;;24.90;58.80;;;;;;5032878;28;20060;-42
2021/08/19 12:34:59;;;;;;;2.85;2.30;;;24.80;59.30;;;;;;5032807;28;20029;-43
2021/08/19 12:37:27;;;;;;;8.88;2.85;;;24.80;58.80;;;;;;5033057;28;20473;-44
2021/08/19 12:39:53;;;;;;;3.65;2.63;;;24.70;59.60;;;;;;5031691;28;20032;-42
2021/08/19 12:42:19;;;;;;;2.53;2.33;;;24.50;59.30;;;;;;5032724;28;20021;-48
2021/08/19 12:45:16;;;;;;;3.67;2.55;;;24.40;59.60;;;;;;5032651;28;20405;-44
2021/08/19 12:47:44;;;;;;;3.03;2.63;;;24.40;58.90;;;;;;5032519;28;20026;-46
2021/08/19 12:50:10;;;;;;;2.78;2.38;;;24.50;59.40;;;;;;5032258;28;20112;-44
2021/08/19 12:52:37;;;;;;;3.22;2.63;;;24.50;59.40;;;;;;5029593;28;20381;-46